sensor_id;sensor_type;location;lat;lon;timestamp;P1;durP1;ratioP1;P2;durP2;ratioP2
15635;SDS011;7917;50.818;6.972;2022-10-16T07:30:46;3.33;;;2.28;;
15635;SDS011;7917;50.818;6.972;2022-10-16T07:33:13;2.58;;;2.13;;
15635;SDS011;7917;50.818;6.972;2022-10-16T07:35:46;2.92;;;2.65;;
15635;SDS011;7917;50.818;6.972;2022-10-16T07:38:15;4.70;;;3.00;;
15635;SDS011;7917;50.818;6.972;2022-10-16T07:40:42;3.80;;;2.70;;
15635;SDS011;7917;50.818;6.972;2022-10-16T07:43:09;3.13;;;2.80;;
15635;SDS011;7917;50.818;6.972;2022-10-16T07:45:38;4.18;;;2.70;;
15635;SDS011;7917;50.818;6.972;2022-10-16T07:48:12;3.40;;;2.53;;
15635;SDS011;7917;50.818;6.972;2022-10-16T07:50:39;2.63;;;2.42;;
15635;SDS011;7917;50.818;6.972;2022-10-16T07:53:07;2.95;;;2.60;;
15635;SDS011;7917;50.818;6.972;2022-10-16T07:55:35;4.30;;;2.53;;
15635;SDS011;7917;50.818;6.972;2022-10-16T07:58:02;2.90;;;2.10;;
15635;SDS011;7917;50.818;6.972;2022-10-16T08:00:29;2.35;;;2.15;;
15635;SDS011;7917;50.818;6.972;2022-10-16T08:02:58;2.42;;;2.00;;
15635;SDS011;7917;50.818;6.972;2022-10-16T08:05:26;3.28;;;1.90;;
15635;SDS011;7917;50.818;6.972;2022-10-16T08:07:54;3.45;;;2.00;;
15635;SDS011;7917;50.818;6.972;2022-10-16T08:10:22;4.90;;;2.13;;
15635;SDS011;7917;50.818;6.972;2022-10-16T08:12:51;4.97;;;2.25;;
15635;SDS011;7917;50.818;6.972;2022-10-16T08:15:19;3.05;;;2.42;;
15635;SDS011;7917;50.818;6.972;2022-10-16T08:17:53;4.00;;;2.40;;
15635;SDS011;7917;50.818;6.972;2022-10-16T08:20:23;3.90;;;2.50;;
15635;SDS011;7917;50.818;6.972;2022-10-16T08:22:51;3.45;;;2.00;;
15635;SDS011;7917;50.818;6.972;2022-10-16T08:25:19;3.90;;;1.85;;
15635;SDS011;7917;50.818;6.972;2022-10-16T08:27:46;5.22;;;2.90;;
15635;SDS011;7917;50.818;6.972;2022-10-16T08:30:14;2.33;;;2.13;;
15635;SDS011;7917;50.818;6.972;2022-10-16T08:32:41;5.88;;;3.20;;
15635;SDS011;7917;50.818;6.972;2022-10-16T08:35:09;2.60;;;2.40;;
15635;SDS011;7917;50.818;6.972;2022-10-16T08:37:38;2.72;;;2.05;;
15635;SDS011;7917;50.818;6.972;2022-10-16T08:40:06;5.38;;;3.00;;
15635;SDS011;7917;50.818;6.972;2022-10-16T08:42:45;2.22;;;2.00;;
15635;SDS011;7917;50.818;6.972;2022-10-16T08:45:27;1.83;;;1.67;;
15635;SDS011;7917;50.818;6.972;2022-10-16T08:48:09;1.58;;;1.35;;
15635;SDS011;7917;50.818;6.972;2022-10-16T08:50:44;1.75;;;1.40;;
15635;SDS011;7917;50.818;6.972;2022-10-16T08:53:17;1.33;;;1.23;;
15635;SDS011;7917;50.818;6.972;2022-10-16T08:55:49;3.10;;;1.17;;
15635;SDS011;7917;50.818;6.972;2022-10-16T08:58:18;1.23;;;1.10;;
15635;SDS011;7917;50.818;6.972;2022-10-16T09:00:48;1.73;;;1.10;;
15635;SDS011;7917;50.818;6.972;2022-10-16T09:03:23;1.80;;;1.15;;
15635;SDS011;7917;50.818;6.972;2022-10-16T09:06:16;2.40;;;1.20;;
15635;SDS011;7917;50.818;6.972;2022-10-16T09:08:58;2.88;;;1.42;;
15635;SDS011;7917;50.818;6.972;2022-10-16T09:11:39;2.15;;;1.70;;
15635;SDS011;7917;50.818;6.972;2022-10-16T09:14:17;4.05;;;1.38;;
15635;SDS011;7917;50.818;6.972;2022-10-16T09:17:04;1.52;;;1.10;;
15635;SDS011;7917;50.818;6.972;2022-10-16T09:19:46;2.67;;;0.90;;
15635;SDS011;7917;50.818;6.972;2022-10-16T09:22:17;1.88;;;0.90;;
15635;SDS011;7917;50.818;6.972;2022-10-16T09:24:48;2.40;;;1.10;;
15635;SDS011;7917;50.818;6.972;2022-10-16T09:27:16;2.33;;;1.30;;
15635;SDS011;7917;50.818;6.972;2022-10-16T09:29:43;1.52;;;1.10;;
15635;SDS011;7917;50.818;6.972;2022-10-16T09:32:11;1.55;;;1.10;;
15635;SDS011;7917;50.818;6.972;2022-10-16T09:34:42;1.27;;;0.98;;
15635;SDS011;7917;50.818;6.972;2022-10-16T09:37:14;0.90;;;0.80;;
15635;SDS011;7917;50.818;6.972;2022-10-16T09:39:46;0.80;;;0.70;;
15635;SDS011;7917;50.818;6.972;2022-10-16T09:42:17;1.38;;;1.13;;
15635;SDS011;7917;50.818;6.972;2022-10-16T09:44:47;1.42;;;0.77;;
15635;SDS011;7917;50.818;6.972;2022-10-16T09:47:19;1.77;;;0.95;;
15635;SDS011;7917;50.818;6.972;2022-10-16T09:49:51;1.73;;;1.00;;
15635;SDS011;7917;50.818;6.972;2022-10-16T09:52:20;5.35;;;1.33;;
15635;SDS011;7917;50.818;6.972;2022-10-16T09:54:50;0.90;;;0.80;;
15635;SDS011;7917;50.818;6.972;2022-10-16T09:57:19;1.63;;;0.90;;
15635;SDS011;7917;50.818;6.972;2022-10-16T09:59:47;1.27;;;0.75;;
15635;SDS011;7917;50.818;6.972;2022-10-16T10:02:16;0.73;;;0.68;;
15635;SDS011;7917;50.818;6.972;2022-10-16T10:04:47;1.00;;;0.70;;
15635;SDS011;7917;50.818;6.972;2022-10-16T10:07:21;1.67;;;1.00;;
15635;SDS011;7917;50.818;6.972;2022-10-16T10:09:53;1.05;;;0.80;;
15635;SDS011;7917;50.818;6.972;2022-10-16T10:12:21;2.15;;;0.85;;
15635;SDS011;7917;50.818;6.972;2022-10-16T10:14:51;1.63;;;0.60;;
15635;SDS011;7917;50.818;6.972;2022-10-16T10:17:19;1.20;;;0.60;;
15635;SDS011;7917;50.818;6.972;2022-10-16T10:19:49;1.75;;;0.60;;
15635;SDS011;7917;50.818;6.972;2022-10-16T10:22:24;1.05;;;0.60;;
15635;SDS011;7917;50.818;6.972;2022-10-16T10:31:08;2.92;;;0.90;;
15635;SDS011;7917;50.818;6.972;2022-10-16T10:33:42;0.82;;;0.80;;
15635;SDS011;7917;50.818;6.972;2022-10-16T10:36:19;0.80;;;0.75;;
15635;SDS011;7917;50.818;6.972;2022-10-16T10:38:54;1.13;;;0.80;;
15635;SDS011;7917;50.818;6.972;2022-10-16T10:44:33;0.85;;;0.70;;
15635;SDS011;7917;50.818;6.972;2022-10-16T10:47:15;2.45;;;0.75;;
15635;SDS011;7917;50.818;6.972;2022-10-16T10:49:54;1.17;;;0.65;;
15635;SDS011;7917;50.818;6.972;2022-10-16T10:52:34;1.63;;;0.75;;
15635;SDS011;7917;50.818;6.972;2022-10-16T10:55:13;0.75;;;0.60;;
15635;SDS011;7917;50.818;6.972;2022-10-16T10:57:51;0.82;;;0.65;;
15635;SDS011;7917;50.818;6.972;2022-10-16T11:00:30;4.20;;;0.90;;
15635;SDS011;7917;50.818;6.972;2022-10-16T11:03:11;1.02;;;0.80;;
15635;SDS011;7917;50.818;6.972;2022-10-16T11:05:52;1.88;;;0.55;;
15635;SDS011;7917;50.818;6.972;2022-10-16T11:08:26;1.27;;;0.93;;
15635;SDS011;7917;50.818;6.972;2022-10-16T11:11:00;0.98;;;0.50;;
15635;SDS011;7917;50.818;6.972;2022-10-16T11:13:30;1.33;;;0.50;;
15635;SDS011;7917;50.818;6.972;2022-10-16T11:16:02;1.08;;;0.57;;
15635;SDS011;7917;50.818;6.972;2022-10-16T11:18:39;1.20;;;0.60;;
15635;SDS011;7917;50.818;6.972;2022-10-16T11:21:16;0.90;;;0.80;;
15635;SDS011;7917;50.818;6.972;2022-10-16T11:23:48;1.13;;;0.70;;
15635;SDS011;7917;50.818;6.972;2022-10-16T11:26:20;0.70;;;0.70;;
15635;SDS011;7917;50.818;6.972;2022-10-16T11:28:51;1.08;;;0.70;;
15635;SDS011;7917;50.818;6.972;2022-10-16T11:31:24;0.57;;;0.43;;
15635;SDS011;7917;50.818;6.972;2022-10-16T11:34:01;3.60;;;0.80;;
15635;SDS011;7917;50.818;6.972;2022-10-16T11:36:34;0.80;;;0.52;;
15635;SDS011;7917;50.818;6.972;2022-10-16T11:39:10;0.60;;;0.52;;
15635;SDS011;7917;50.818;6.972;2022-10-16T11:41:45;0.63;;;0.60;;
15635;SDS011;7917;50.818;6.972;2022-10-16T11:44:27;0.73;;;0.43;;
15635;SDS011;7917;50.818;6.972;2022-10-16T11:47:12;2.05;;;0.57;;
15635;SDS011;7917;50.818;6.972;2022-10-16T11:49:46;0.55;;;0.40;;
15635;SDS011;7917;50.818;6.972;2022-10-16T11:52:17;2.15;;;0.63;;
15635;SDS011;7917;50.818;6.972;2022-10-16T11:54:50;0.80;;;0.60;;
15635;SDS011;7917;50.818;6.972;2022-10-16T11:57:24;1.38;;;1.00;;
15635;SDS011;7917;50.818;6.972;2022-10-16T11:59:55;1.33;;;0.40;;
15635;SDS011;7917;50.818;6.972;2022-10-16T12:02:37;0.50;;;0.50;;
15635;SDS011;7917;50.818;6.972;2022-10-16T12:05:15;0.75;;;0.50;;
15635;SDS011;7917;50.818;6.972;2022-10-16T12:07:50;0.40;;;0.40;;
15635;SDS011;7917;50.818;6.972;2022-10-16T12:10:26;1.27;;;0.47;;
15635;SDS011;7917;50.818;6.972;2022-10-16T12:12:57;1.05;;;0.73;;
15635;SDS011;7917;50.818;6.972;2022-10-16T12:15:25;2.03;;;1.83;;
15635;SDS011;7917;50.818;6.972;2022-10-16T12:17:55;1.42;;;1.10;;
15635;SDS011;7917;50.818;6.972;2022-10-16T12:20:25;1.38;;;0.60;;
15635;SDS011;7917;50.818;6.972;2022-10-16T12:22:57;1.35;;;0.68;;
15635;SDS011;7917;50.818;6.972;2022-10-16T12:25:28;0.93;;;0.75;;
15635;SDS011;7917;50.818;6.972;2022-10-16T12:27:57;1.38;;;1.00;;
15635;SDS011;7917;50.818;6.972;2022-10-16T12:30:28;0.70;;;0.47;;
15635;SDS011;7917;50.818;6.972;2022-10-16T12:32:59;1.48;;;0.35;;
15635;SDS011;7917;50.818;6.972;2022-10-16T12:35:32;1.35;;;0.70;;
15635;SDS011;7917;50.818;6.972;2022-10-16T12:38:13;0.50;;;0.40;;
15635;SDS011;7917;50.818;6.972;2022-10-16T12:40:47;2.33;;;0.75;;
15635;SDS011;7917;50.818;6.972;2022-10-16T12:43:28;0.93;;;0.40;;
15635;SDS011;7917;50.818;6.972;2022-10-16T12:46:04;1.38;;;1.05;;
15635;SDS011;7917;50.818;6.972;2022-10-16T12:48:50;1.15;;;0.70;;
15635;SDS011;7917;50.818;6.972;2022-10-16T12:51:22;3.28;;;0.98;;
15635;SDS011;7917;50.818;6.972;2022-10-16T12:54:01;1.08;;;0.68;;
15635;SDS011;7917;50.818;6.972;2022-10-16T12:56:33;1.13;;;0.60;;
15635;SDS011;7917;50.818;6.972;2022-10-16T12:59:09;2.97;;;0.73;;
15635;SDS011;7917;50.818;6.972;2022-10-16T13:01:55;2.05;;;0.50;;
15635;SDS011;7917;50.818;6.972;2022-10-16T13:04:40;0.80;;;0.75;;
15635;SDS011;7917;50.818;6.972;2022-10-16T13:07:26;2.10;;;0.80;;
15635;SDS011;7917;50.818;6.972;2022-10-16T13:10:07;0.45;;;0.40;;
15635;SDS011;7917;50.818;6.972;2022-10-16T13:12:50;0.60;;;0.50;;
15635;SDS011;7917;50.818;6.972;2022-10-16T13:15:32;1.15;;;0.60;;
15635;SDS011;7917;50.818;6.972;2022-10-16T13:18:15;0.75;;;0.55;;
15635;SDS011;7917;50.818;6.972;2022-10-16T13:20:56;0.77;;;0.60;;
15635;SDS011;7917;50.818;6.972;2022-10-16T13:23:45;0.73;;;0.63;;
15635;SDS011;7917;50.818;6.972;2022-10-16T13:26:22;1.25;;;0.52;;
15635;SDS011;7917;50.818;6.972;2022-10-16T13:28:58;3.28;;;2.40;;
15635;SDS011;7917;50.818;6.972;2022-10-16T13:31:26;2.20;;;1.60;;
15635;SDS011;7917;50.818;6.972;2022-10-16T13:33:56;1.20;;;1.00;;
15635;SDS011;7917;50.818;6.972;2022-10-16T13:36:27;1.05;;;0.80;;
15635;SDS011;7917;50.818;6.972;2022-10-16T13:39:06;2.28;;;0.60;;
15635;SDS011;7917;50.818;6.972;2022-10-16T13:41:38;0.73;;;0.50;;
15635;SDS011;7917;50.818;6.972;2022-10-16T13:44:09;0.52;;;0.52;;
15635;SDS011;7917;50.818;6.972;2022-10-16T13:46:41;2.55;;;0.50;;
15635;SDS011;7917;50.818;6.972;2022-10-16T13:49:11;0.63;;;0.43;;
15635;SDS011;7917;50.818;6.972;2022-10-16T13:51:47;2.97;;;0.52;;
15635;SDS011;7917;50.818;6.972;2022-10-16T13:54:21;2.72;;;0.50;;
15635;SDS011;7917;50.818;6.972;2022-10-16T13:59:44;0.80;;;0.70;;
15635;SDS011;7917;50.818;6.972;2022-10-16T14:02:16;0.50;;;0.50;;
15635;SDS011;7917;50.818;6.972;2022-10-16T14:04:49;2.00;;;1.65;;
15635;SDS011;7917;50.818;6.972;2022-10-16T14:07:20;0.90;;;0.70;;
15635;SDS011;7917;50.818;6.972;2022-10-16T14:09:50;0.90;;;0.73;;
15635;SDS011;7917;50.818;6.972;2022-10-16T14:12:19;1.08;;;0.75;;
15635;SDS011;7917;50.818;6.972;2022-10-16T14:14:48;2.30;;;1.02;;
15635;SDS011;7917;50.818;6.972;2022-10-16T14:17:18;3.65;;;1.50;;
15635;SDS011;7917;50.818;6.972;2022-10-16T14:19:49;2.67;;;1.00;;
15635;SDS011;7917;50.818;6.972;2022-10-16T14:22:26;2.90;;;1.83;;
15635;SDS011;7917;50.818;6.972;2022-10-16T14:24:56;1.00;;;0.90;;
15635;SDS011;7917;50.818;6.972;2022-10-16T14:27:28;1.45;;;0.77;;
15635;SDS011;7917;50.818;6.972;2022-10-16T14:30:13;0.70;;;0.70;;
15635;SDS011;7917;50.818;6.972;2022-10-16T14:32:52;3.13;;;0.60;;
15635;SDS011;7917;50.818;6.972;2022-10-16T14:35:22;0.57;;;0.43;;
15635;SDS011;7917;50.818;6.972;2022-10-16T14:37:53;1.55;;;0.57;;
15635;SDS011;7917;50.818;6.972;2022-10-16T14:40:25;1.05;;;0.55;;
15635;SDS011;7917;50.818;6.972;2022-10-16T14:42:54;1.48;;;0.60;;
15635;SDS011;7917;50.818;6.972;2022-10-16T14:45:23;1.13;;;0.77;;
15635;SDS011;7917;50.818;6.972;2022-10-16T14:47:53;2.25;;;0.80;;
15635;SDS011;7917;50.818;6.972;2022-10-16T14:50:22;0.65;;;0.57;;
15635;SDS011;7917;50.818;6.972;2022-10-16T14:52:50;0.70;;;0.50;;
15635;SDS011;7917;50.818;6.972;2022-10-16T14:55:18;0.60;;;0.40;;
15635;SDS011;7917;50.818;6.972;2022-10-16T14:57:46;3.05;;;1.13;;
15635;SDS011;7917;50.818;6.972;2022-10-16T15:00:16;5.82;;;1.33;;
15635;SDS011;7917;50.818;6.972;2022-10-16T15:02:46;0.77;;;0.55;;
15635;SDS011;7917;50.818;6.972;2022-10-16T15:05:16;0.77;;;0.70;;
15635;SDS011;7917;50.818;6.972;2022-10-16T15:07:45;2.55;;;0.68;;
15635;SDS011;7917;50.818;6.972;2022-10-16T15:10:12;0.75;;;0.65;;
15635;SDS011;7917;50.818;6.972;2022-10-16T15:12:42;1.70;;;0.60;;
15635;SDS011;7917;50.818;6.972;2022-10-16T15:15:21;0.88;;;0.60;;
15635;SDS011;7917;50.818;6.972;2022-10-16T15:17:53;0.73;;;0.73;;
15635;SDS011;7917;50.818;6.972;2022-10-16T15:20:22;2.25;;;1.00;;
15635;SDS011;7917;50.818;6.972;2022-10-16T15:22:50;0.77;;;0.60;;
15635;SDS011;7917;50.818;6.972;2022-10-16T15:25:25;0.90;;;0.60;;
15635;SDS011;7917;50.818;6.972;2022-10-16T15:27:58;1.58;;;1.05;;
15635;SDS011;7917;50.818;6.972;2022-10-16T15:30:27;1.58;;;0.98;;
15635;SDS011;7917;50.818;6.972;2022-10-16T15:32:55;2.95;;;0.93;;
15635;SDS011;7917;50.818;6.972;2022-10-16T15:35:22;6.93;;;1.55;;
15635;SDS011;7917;50.818;6.972;2022-10-16T15:37:50;2.90;;;0.90;;
15635;SDS011;7917;50.818;6.972;2022-10-16T15:40:17;1.88;;;1.00;;
15635;SDS011;7917;50.818;6.972;2022-10-16T15:42:47;1.92;;;0.90;;
15635;SDS011;7917;50.818;6.972;2022-10-16T15:45:22;1.60;;;0.80;;
15635;SDS011;7917;50.818;6.972;2022-10-16T15:47:49;3.10;;;0.88;;
15635;SDS011;7917;50.818;6.972;2022-10-16T15:50:17;1.00;;;0.80;;
15635;SDS011;7917;50.818;6.972;2022-10-16T15:52:44;5.47;;;0.90;;
15635;SDS011;7917;50.818;6.972;2022-10-16T15:55:12;1.35;;;0.75;;
15635;SDS011;7917;50.818;6.972;2022-10-16T15:57:40;2.25;;;0.70;;
15635;SDS011;7917;50.818;6.972;2022-10-16T16:00:11;2.88;;;0.98;;
15635;SDS011;7917;50.818;6.972;2022-10-16T16:02:41;1.27;;;0.90;;
15635;SDS011;7917;50.818;6.972;2022-10-16T16:05:09;1.00;;;0.90;;
15635;SDS011;7917;50.818;6.972;2022-10-16T16:07:37;1.30;;;1.20;;
15635;SDS011;7917;50.818;6.972;2022-10-16T16:10:07;1.33;;;1.20;;
15635;SDS011;7917;50.818;6.972;2022-10-16T16:12:36;3.58;;;1.42;;
15635;SDS011;7917;50.818;6.972;2022-10-16T16:15:04;2.15;;;1.15;;
15635;SDS011;7917;50.818;6.972;2022-10-16T16:17:33;2.67;;;1.02;;
15635;SDS011;7917;50.818;6.972;2022-10-16T16:20:03;3.15;;;1.10;;
15635;SDS011;7917;50.818;6.972;2022-10-16T16:22:32;1.13;;;1.02;;
15635;SDS011;7917;50.818;6.972;2022-10-16T16:25:00;1.10;;;0.90;;
15635;SDS011;7917;50.818;6.972;2022-10-16T16:27:28;0.90;;;0.80;;
15635;SDS011;7917;50.818;6.972;2022-10-16T16:29:58;2.58;;;1.10;;
15635;SDS011;7917;50.818;6.972;2022-10-16T16:32:26;1.98;;;1.10;;
15635;SDS011;7917;50.818;6.972;2022-10-16T16:34:54;1.20;;;1.10;;
15635;SDS011;7917;50.818;6.972;2022-10-16T16:37:23;2.00;;;1.27;;
15635;SDS011;7917;50.818;6.972;2022-10-16T16:39:50;3.75;;;3.45;;
15635;SDS011;7917;50.818;6.972;2022-10-16T16:42:19;2.28;;;1.80;;
15635;SDS011;7917;50.818;6.972;2022-10-16T16:44:47;1.30;;;1.20;;
15635;SDS011;7917;50.818;6.972;2022-10-16T16:47:14;1.50;;;1.27;;
15635;SDS011;7917;50.818;6.972;2022-10-16T16:49:42;2.47;;;1.45;;
15635;SDS011;7917;50.818;6.972;2022-10-16T16:52:09;1.38;;;1.20;;
15635;SDS011;7917;50.818;6.972;2022-10-16T16:54:39;1.48;;;1.25;;
15635;SDS011;7917;50.818;6.972;2022-10-16T16:57:07;2.22;;;1.45;;
15635;SDS011;7917;50.818;6.972;2022-10-16T16:59:35;1.67;;;1.58;;
15635;SDS011;7917;50.818;6.972;2022-10-16T17:02:03;2.47;;;2.28;;
15635;SDS011;7917;50.818;6.972;2022-10-16T17:04:31;3.50;;;2.13;;
15635;SDS011;7917;50.818;6.972;2022-10-16T17:06:58;3.45;;;2.70;;
15635;SDS011;7917;50.818;6.972;2022-10-16T17:09:26;2.42;;;2.10;;
15635;SDS011;7917;50.818;6.972;2022-10-16T17:11:56;4.05;;;2.30;;
15635;SDS011;7917;50.818;6.972;2022-10-16T17:14:23;4.53;;;2.90;;
15635;SDS011;7917;50.818;6.972;2022-10-16T17:16:52;6.10;;;3.20;;
15635;SDS011;7917;50.818;6.972;2022-10-16T17:19:19;3.33;;;2.85;;
15635;SDS011;7917;50.818;6.972;2022-10-16T17:21:48;3.80;;;3.35;;
15635;SDS011;7917;50.818;6.972;2022-10-16T17:24:16;3.65;;;3.00;;
15635;SDS011;7917;50.818;6.972;2022-10-16T17:26:45;3.10;;;2.38;;
15635;SDS011;7917;50.818;6.972;2022-10-16T17:29:17;3.55;;;2.42;;
15635;SDS011;7917;50.818;6.972;2022-10-16T17:31:44;3.58;;;2.28;;
15635;SDS011;7917;50.818;6.972;2022-10-16T17:34:14;2.65;;;2.30;;
15635;SDS011;7917;50.818;6.972;2022-10-16T17:36:41;3.10;;;1.95;;
15635;SDS011;7917;50.818;6.972;2022-10-16T17:39:12;2.42;;;1.83;;
15635;SDS011;7917;50.818;6.972;2022-10-16T17:41:42;2.95;;;2.25;;
15635;SDS011;7917;50.818;6.972;2022-10-16T17:44:10;3.03;;;2.47;;
15635;SDS011;7917;50.818;6.972;2022-10-16T17:46:46;9.52;;;3.30;;
15635;SDS011;7917;50.818;6.972;2022-10-16T17:49:14;5.13;;;3.00;;
15635;SDS011;7917;50.818;6.972;2022-10-16T17:51:42;2.28;;;2.08;;
15635;SDS011;7917;50.818;6.972;2022-10-16T17:54:10;2.67;;;2.10;;
15635;SDS011;7917;50.818;6.972;2022-10-16T17:56:38;6.25;;;1.90;;
15635;SDS011;7917;50.818;6.972;2022-10-16T17:59:06;2.15;;;1.92;;
15635;SDS011;7917;50.818;6.972;2022-10-16T18:01:34;5.10;;;2.30;;
15635;SDS011;7917;50.818;6.972;2022-10-16T18:04:09;2.20;;;2.00;;
15635;SDS011;7917;50.818;6.972;2022-10-16T18:06:38;3.47;;;2.30;;
15635;SDS011;7917;50.818;6.972;2022-10-16T18:09:08;2.28;;;2.08;;
15635;SDS011;7917;50.818;6.972;2022-10-16T18:11:38;3.13;;;2.10;;
15635;SDS011;7917;50.818;6.972;2022-10-16T18:14:05;3.60;;;1.92;;
15635;SDS011;7917;50.818;6.972;2022-10-16T18:16:33;2.58;;;2.08;;
15635;SDS011;7917;50.818;6.972;2022-10-16T18:19:03;3.60;;;2.42;;
15635;SDS011;7917;50.818;6.972;2022-10-16T18:21:32;4.40;;;2.50;;
15635;SDS011;7917;50.818;6.972;2022-10-16T18:24:00;2.70;;;2.03;;
15635;SDS011;7917;50.818;6.972;2022-10-16T18:26:28;3.53;;;2.00;;
15635;SDS011;7917;50.818;6.972;2022-10-16T18:28:56;3.42;;;2.22;;
15635;SDS011;7917;50.818;6.972;2022-10-16T18:31:27;3.85;;;2.30;;
15635;SDS011;7917;50.818;6.972;2022-10-16T18:33:55;2.83;;;2.20;;
15635;SDS011;7917;50.818;6.972;2022-10-16T18:36:25;2.47;;;2.28;;
15635;SDS011;7917;50.818;6.972;2022-10-16T18:38:54;4.43;;;2.75;;
15635;SDS011;7917;50.818;6.972;2022-10-16T18:41:22;3.15;;;2.58;;
15635;SDS011;7917;50.818;6.972;2022-10-16T18:43:53;3.78;;;2.70;;
15635;SDS011;7917;50.818;6.972;2022-10-16T18:46:21;3.03;;;2.35;;
15635;SDS011;7917;50.818;6.972;2022-10-16T18:48:49;2.30;;;2.10;;
15635;SDS011;7917;50.818;6.972;2022-10-16T18:51:19;2.95;;;2.28;;
15635;SDS011;7917;50.818;6.972;2022-10-16T18:53:50;2.63;;;2.33;;
15635;SDS011;7917;50.818;6.972;2022-10-16T18:56:22;2.65;;;2.17;;
15635;SDS011;7917;50.818;6.972;2022-10-16T18:58:50;2.67;;;2.35;;
15635;SDS011;7917;50.818;6.972;2022-10-16T19:04:39;2.50;;;2.30;;
15635;SDS011;7917;50.818;6.972;2022-10-16T19:07:06;3.03;;;2.58;;
15635;SDS011;7917;50.818;6.972;2022-10-16T19:09:35;3.40;;;2.72;;
15635;SDS011;7917;50.818;6.972;2022-10-16T19:12:03;5.50;;;2.90;;
15635;SDS011;7917;50.818;6.972;2022-10-16T19:14:32;3.65;;;2.50;;
15635;SDS011;7917;50.818;6.972;2022-10-16T19:16:59;5.70;;;2.50;;
15635;SDS011;7917;50.818;6.972;2022-10-16T19:19:27;2.60;;;2.40;;
15635;SDS011;7917;50.818;6.972;2022-10-16T19:21:55;4.05;;;2.38;;
15635;SDS011;7917;50.818;6.972;2022-10-16T19:24:37;3.35;;;2.60;;
15635;SDS011;7917;50.818;6.972;2022-10-16T19:27:04;3.85;;;2.50;;
15635;SDS011;7917;50.818;6.972;2022-10-16T19:29:33;5.25;;;2.92;;
15635;SDS011;7917;50.818;6.972;2022-10-16T19:32:00;4.40;;;2.42;;
15635;SDS011;7917;50.818;6.972;2022-10-16T19:34:28;6.28;;;4.30;;
15635;SDS011;7917;50.818;6.972;2022-10-16T19:36:56;3.88;;;2.47;;
15635;SDS011;7917;50.818;6.972;2022-10-16T19:39:23;4.40;;;2.78;;
15635;SDS011;7917;50.818;6.972;2022-10-16T19:41:52;5.88;;;3.10;;
15635;SDS011;7917;50.818;6.972;2022-10-16T19:44:20;2.67;;;2.25;;
15635;SDS011;7917;50.818;6.972;2022-10-16T19:46:47;5.57;;;2.65;;
15635;SDS011;7917;50.818;6.972;2022-10-16T19:49:16;3.13;;;2.42;;
15635;SDS011;7917;50.818;6.972;2022-10-16T19:51:46;3.35;;;2.83;;
15635;SDS011;7917;50.818;6.972;2022-10-16T19:54:14;5.43;;;2.63;;
15635;SDS011;7917;50.818;6.972;2022-10-16T19:56:42;7.43;;;2.97;;
15635;SDS011;7917;50.818;6.972;2022-10-16T19:59:12;3.63;;;2.63;;
15635;SDS011;7917;50.818;6.972;2022-10-16T20:01:43;4.05;;;3.33;;
15635;SDS011;7917;50.818;6.972;2022-10-16T20:04:11;4.43;;;2.53;;
15635;SDS011;7917;50.818;6.972;2022-10-16T20:06:38;2.55;;;2.30;;
15635;SDS011;7917;50.818;6.972;2022-10-16T20:09:06;5.10;;;3.03;;
15635;SDS011;7917;50.818;6.972;2022-10-16T20:11:34;3.65;;;3.30;;
15635;SDS011;7917;50.818;6.972;2022-10-16T20:14:01;6.60;;;3.00;;
15635;SDS011;7917;50.818;6.972;2022-10-16T20:16:32;5.32;;;3.40;;
15635;SDS011;7917;50.818;6.972;2022-10-16T20:19:01;4.30;;;3.10;;
15635;SDS011;7917;50.818;6.972;2022-10-16T20:21:29;7.25;;;2.83;;
15635;SDS011;7917;50.818;6.972;2022-10-16T20:23:59;4.47;;;3.13;;
15635;SDS011;7917;50.818;6.972;2022-10-16T20:26:28;3.75;;;2.83;;
15635;SDS011;7917;50.818;6.972;2022-10-16T20:28:55;5.68;;;3.42;;
15635;SDS011;7917;50.818;6.972;2022-10-16T20:31:24;4.50;;;3.20;;
15635;SDS011;7917;50.818;6.972;2022-10-16T20:33:55;6.95;;;3.90;;
15635;SDS011;7917;50.818;6.972;2022-10-16T20:36:25;6.93;;;3.58;;
15635;SDS011;7917;50.818;6.972;2022-10-16T20:38:55;12.80;;;5.40;;
15635;SDS011;7917;50.818;6.972;2022-10-16T20:41:22;4.20;;;3.45;;
15635;SDS011;7917;50.818;6.972;2022-10-16T20:43:50;5.18;;;3.45;;
15635;SDS011;7917;50.818;6.972;2022-10-16T20:46:20;5.30;;;2.88;;
15635;SDS011;7917;50.818;6.972;2022-10-16T20:48:49;5.50;;;3.17;;
15635;SDS011;7917;50.818;6.972;2022-10-16T20:51:19;4.72;;;3.60;;
15635;SDS011;7917;50.818;6.972;2022-10-16T20:53:50;5.32;;;3.47;;
15635;SDS011;7917;50.818;6.972;2022-10-16T20:56:19;3.58;;;3.28;;
15635;SDS011;7917;50.818;6.972;2022-10-16T20:58:47;5.40;;;3.50;;
15635;SDS011;7917;50.818;6.972;2022-10-16T21:01:15;6.53;;;3.72;;
15635;SDS011;7917;50.818;6.972;2022-10-16T21:03:49;4.13;;;3.72;;
15635;SDS011;7917;50.818;6.972;2022-10-16T21:06:20;6.30;;;4.53;;
15635;SDS011;7917;50.818;6.972;2022-10-16T21:08:49;5.78;;;3.65;;
15635;SDS011;7917;50.818;6.972;2022-10-16T21:11:17;5.43;;;3.88;;
15635;SDS011;7917;50.818;6.972;2022-10-16T21:13:46;5.90;;;3.90;;
15635;SDS011;7917;50.818;6.972;2022-10-16T21:16:15;5.50;;;4.20;;
15635;SDS011;7917;50.818;6.972;2022-10-16T21:18:43;5.55;;;4.20;;
15635;SDS011;7917;50.818;6.972;2022-10-16T21:21:17;8.63;;;4.18;;
15635;SDS011;7917;50.818;6.972;2022-10-16T21:23:48;5.88;;;4.55;;
15635;SDS011;7917;50.818;6.972;2022-10-16T21:26:34;4.70;;;3.72;;
15635;SDS011;7917;50.818;6.972;2022-10-16T21:29:03;6.22;;;4.70;;
15635;SDS011;7917;50.818;6.972;2022-10-16T21:31:32;6.90;;;4.68;;
15635;SDS011;7917;50.818;6.972;2022-10-16T21:34:01;5.18;;;4.30;;
15635;SDS011;7917;50.818;6.972;2022-10-16T21:36:30;6.32;;;4.80;;
15635;SDS011;7917;50.818;6.972;2022-10-16T21:39:03;7.57;;;5.07;;
15635;SDS011;7917;50.818;6.972;2022-10-16T21:41:35;4.97;;;4.47;;
15635;SDS011;7917;50.818;6.972;2022-10-16T21:44:03;6.03;;;4.40;;
15635;SDS011;7917;50.818;6.972;2022-10-16T21:46:32;6.20;;;4.90;;
15635;SDS011;7917;50.818;6.972;2022-10-16T21:49:02;8.07;;;4.43;;
15635;SDS011;7917;50.818;6.972;2022-10-16T21:51:35;7.55;;;5.10;;
15635;SDS011;7917;50.818;6.972;2022-10-16T21:54:05;6.43;;;5.05;;
15635;SDS011;7917;50.818;6.972;2022-10-16T21:56:34;5.25;;;4.68;;
15635;SDS011;7917;50.818;6.972;2022-10-16T21:59:01;7.47;;;5.18;;
15635;SDS011;7917;50.818;6.972;2022-10-16T22:01:29;6.28;;;5.60;;
15635;SDS011;7917;50.818;6.972;2022-10-16T22:03:57;8.23;;;5.78;;
15635;SDS011;7917;50.818;6.972;2022-10-16T22:06:25;8.35;;;6.30;;
15635;SDS011;7917;50.818;6.972;2022-10-16T22:08:55;7.32;;;6.43;;
15635;SDS011;7917;50.818;6.972;2022-10-16T22:11:25;8.32;;;6.88;;
15635;SDS011;7917;50.818;6.972;2022-10-16T22:13:54;9.35;;;5.88;;
15635;SDS011;7917;50.818;6.972;2022-10-16T22:16:22;10.55;;;6.57;;
15635;SDS011;7917;50.818;6.972;2022-10-16T22:18:51;7.40;;;6.40;;
15635;SDS011;7917;50.818;6.972;2022-10-16T22:21:19;7.63;;;6.32;;
15635;SDS011;7917;50.818;6.972;2022-10-16T22:23:46;7.47;;;6.18;;
15635;SDS011;7917;50.818;6.972;2022-10-16T22:26:18;7.65;;;6.72;;
15635;SDS011;7917;50.818;6.972;2022-10-16T22:28:45;7.28;;;5.85;;
15635;SDS011;7917;50.818;6.972;2022-10-16T22:31:13;9.35;;;7.25;;
15635;SDS011;7917;50.818;6.972;2022-10-16T22:33:41;10.32;;;6.75;;
15635;SDS011;7917;50.818;6.972;2022-10-16T22:36:10;9.25;;;7.13;;
15635;SDS011;7917;50.818;6.972;2022-10-16T22:38:39;8.70;;;6.82;;
15635;SDS011;7917;50.818;6.972;2022-10-16T22:41:07;7.68;;;6.88;;
15635;SDS011;7917;50.818;6.972;2022-10-16T22:43:38;10.13;;;6.97;;
15635;SDS011;7917;50.818;6.972;2022-10-16T22:46:09;8.73;;;7.05;;
15635;SDS011;7917;50.818;6.972;2022-10-16T22:48:39;7.30;;;6.55;;
15635;SDS011;7917;50.818;6.972;2022-10-16T22:51:11;8.68;;;6.40;;
15635;SDS011;7917;50.818;6.972;2022-10-16T22:53:39;11.80;;;7.35;;
15635;SDS011;7917;50.818;6.972;2022-10-16T22:56:07;9.10;;;7.45;;
15635;SDS011;7917;50.818;6.972;2022-10-16T22:58:38;8.25;;;6.90;;
15635;SDS011;7917;50.818;6.972;2022-10-16T23:01:09;9.68;;;6.95;;
15635;SDS011;7917;50.818;6.972;2022-10-16T23:03:37;9.90;;;7.13;;
15635;SDS011;7917;50.818;6.972;2022-10-16T23:06:06;10.13;;;8.05;;
15635;SDS011;7917;50.818;6.972;2022-10-16T23:08:36;9.35;;;7.18;;